sensor_id;sensor_type;location;lat;lon;timestamp;pressure;altitude;pressure_sealevel;temperature;humidity
76762;BME280;65705;51.032;13.790;2023-05-29T00:00:17;100617.56;;;14.24;63.21
76762;BME280;65705;51.032;13.790;2023-05-29T00:02:52;100620.72;;;14.19;63.61
76762;BME280;65705;51.032;13.790;2023-05-29T00:05:18;100624.22;;;14.12;63.91
76762;BME280;65705;51.032;13.790;2023-05-29T00:07:43;100617.13;;;14.04;64.48
76762;BME280;65705;51.032;13.790;2023-05-29T00:10:10;100623.22;;;14.05;64.48
76762;BME280;65705;51.032;13.790;2023-05-29T00:12:36;100620.78;;;14.03;64.53
76762;BME280;65705;51.032;13.790;2023-05-29T00:15:02;100621.56;;;14.04;64.21
76762;BME280;65705;51.032;13.790;2023-05-29T00:17:31;100624.59;;;13.93;64.64
76762;BME280;65705;51.032;13.790;2023-05-29T00:19:58;100617.81;;;13.90;64.47
76762;BME280;65705;51.032;13.790;2023-05-29T00:22:24;100622.44;;;13.88;64.93
76762;BME280;65705;51.032;13.790;2023-05-29T00:24:51;100616.19;;;13.89;64.72
76762;BME280;65705;51.032;13.790;2023-05-29T00:27:17;100610.72;;;13.83;64.99
76762;BME280;65705;51.032;13.790;2023-05-29T00:29:43;100604.63;;;13.82;64.94
76762;BME280;65705;51.032;13.790;2023-05-29T00:32:09;100609.91;;;13.82;64.96
76762;BME280;65705;51.032;13.790;2023-05-29T00:34:35;100611.41;;;13.77;65.25
76762;BME280;65705;51.032;13.790;2023-05-29T00:37:01;100614.22;;;13.67;65.47
76762;BME280;65705;51.032;13.790;2023-05-29T00:39:27;100607.63;;;13.63;65.84
76762;BME280;65705;51.032;13.790;2023-05-29T00:41:52;100612.75;;;13.56;65.80
76762;BME280;65705;51.032;13.790;2023-05-29T00:44:19;100610.94;;;13.49;66.07
76762;BME280;65705;51.032;13.790;2023-05-29T00:46:49;100608.94;;;13.43;66.17
76762;BME280;65705;51.032;13.790;2023-05-29T00:49:16;100601.34;;;13.32;66.43
76762;BME280;65705;51.032;13.790;2023-05-29T00:51:43;100601.03;;;13.35;66.26
76762;BME280;65705;51.032;13.790;2023-05-29T00:54:16;100604.81;;;13.32;66.08
76762;BME280;65705;51.032;13.790;2023-05-29T00:56:43;100601.88;;;13.19;66.40
76762;BME280;65705;51.032;13.790;2023-05-29T00:59:10;100606.63;;;13.16;66.34
76762;BME280;65705;51.032;13.790;2023-05-29T01:01:37;100614.53;;;13.16;66.19
76762;BME280;65705;51.032;13.790;2023-05-29T01:04:05;100608.13;;;13.10;66.01
76762;BME280;65705;51.032;13.790;2023-05-29T01:06:32;100611.06;;;13.07;65.94
76762;BME280;65705;51.032;13.790;2023-05-29T01:08:58;100608.91;;;13.11;65.72
76762;BME280;65705;51.032;13.790;2023-05-29T01:14:02;100604.31;;;13.05;65.62
76762;BME280;65705;51.032;13.790;2023-05-29T01:16:51;100605.56;;;12.93;65.59
76762;BME280;65705;51.032;13.790;2023-05-29T01:19:53;100604.56;;;12.86;65.86
76762;BME280;65705;51.032;13.790;2023-05-29T01:22:51;100607.69;;;12.81;66.04
76762;BME280;65705;51.032;13.790;2023-05-29T01:25:40;100603.88;;;12.76;65.84
76762;BME280;65705;51.032;13.790;2023-05-29T01:28:13;100609.31;;;12.74;66.25
76762;BME280;65705;51.032;13.790;2023-05-29T01:30:41;100604.84;;;12.74;66.00
76762;BME280;65705;51.032;13.790;2023-05-29T01:33:08;100614.75;;;12.73;66.25
76762;BME280;65705;51.032;13.790;2023-05-29T01:35:35;100617.31;;;12.56;66.69
76762;BME280;65705;51.032;13.790;2023-05-29T01:38:01;100623.06;;;12.52;66.28
76762;BME280;65705;51.032;13.790;2023-05-29T01:40:26;100615.44;;;12.41;66.23
76762;BME280;65705;51.032;13.790;2023-05-29T01:42:52;100616.72;;;12.37;66.42
76762;BME280;65705;51.032;13.790;2023-05-29T01:45:19;100613.72;;;12.24;66.62
76762;BME280;65705;51.032;13.790;2023-05-29T01:47:46;100611.53;;;12.19;66.97
76762;BME280;65705;51.032;13.790;2023-05-29T01:50:15;100609.25;;;12.24;66.65
76762;BME280;65705;51.032;13.790;2023-05-29T01:52:43;100611.44;;;12.29;66.42
76762;BME280;65705;51.032;13.790;2023-05-29T01:55:09;100608.81;;;12.29;66.42
76762;BME280;65705;51.032;13.790;2023-05-29T01:57:36;100611.28;;;12.30;66.52
76762;BME280;65705;51.032;13.790;2023-05-29T02:00:03;100613.41;;;12.27;66.82
76762;BME280;65705;51.032;13.790;2023-05-29T02:02:40;100617.53;;;12.29;66.45
76762;BME280;65705;51.032;13.790;2023-05-29T02:05:07;100614.22;;;12.27;66.57
76762;BME280;65705;51.032;13.790;2023-05-29T02:07:34;100612.56;;;12.26;66.65
76762;BME280;65705;51.032;13.790;2023-05-29T02:10:04;100604.84;;;12.25;66.88
76762;BME280;65705;51.032;13.790;2023-05-29T02:12:31;100606.63;;;12.24;66.67
76762;BME280;65705;51.032;13.790;2023-05-29T02:14:57;100609.41;;;12.15;66.87
76762;BME280;65705;51.032;13.790;2023-05-29T02:17:23;100613.84;;;12.14;67.07
76762;BME280;65705;51.032;13.790;2023-05-29T02:19:49;100622.72;;;12.13;67.11
76762;BME280;65705;51.032;13.790;2023-05-29T02:22:17;100625.81;;;12.09;67.09
76762;BME280;65705;51.032;13.790;2023-05-29T02:24:43;100625.28;;;12.05;66.98
76762;BME280;65705;51.032;13.790;2023-05-29T02:27:09;100620.19;;;12.04;67.19
76762;BME280;65705;51.032;13.790;2023-05-29T02:29:35;100620.19;;;12.04;66.92
76762;BME280;65705;51.032;13.790;2023-05-29T02:32:01;100622.16;;;12.02;67.12
76762;BME280;65705;51.032;13.790;2023-05-29T02:34:26;100618.31;;;11.96;67.26
76762;BME280;65705;51.032;13.790;2023-05-29T02:36:52;100627.06;;;11.97;67.03
76762;BME280;65705;51.032;13.790;2023-05-29T02:39:19;100624.75;;;11.94;67.29
76762;BME280;65705;51.032;13.790;2023-05-29T02:41:45;100629.16;;;11.93;67.02
76762;BME280;65705;51.032;13.790;2023-05-29T02:44:11;100636.03;;;11.86;67.00
76762;BME280;65705;51.032;13.790;2023-05-29T02:46:36;100642.25;;;11.85;67.28
76762;BME280;65705;51.032;13.790;2023-05-29T02:49:02;100639.78;;;11.84;67.17
76762;BME280;65705;51.032;13.790;2023-05-29T02:51:28;100644.84;;;11.77;67.46
76762;BME280;65705;51.032;13.790;2023-05-29T02:53:54;100644.31;;;11.74;67.63
76762;BME280;65705;51.032;13.790;2023-05-29T02:56:20;100648.78;;;11.63;67.78
76762;BME280;65705;51.032;13.790;2023-05-29T02:58:54;100663.53;;;11.56;68.13
76762;BME280;65705;51.032;13.790;2023-05-29T03:01:20;100652.84;;;11.58;68.21
76762;BME280;65705;51.032;13.790;2023-05-29T03:03:47;100659.63;;;11.43;68.72
76762;BME280;65705;51.032;13.790;2023-05-29T03:06:13;100665.19;;;11.40;69.07
76762;BME280;65705;51.032;13.790;2023-05-29T03:08:39;100667.22;;;11.28;69.53
76762;BME280;65705;51.032;13.790;2023-05-29T03:11:09;100673.59;;;11.26;69.66
76762;BME280;65705;51.032;13.790;2023-05-29T03:13:38;100672.63;;;11.27;69.57
76762;BME280;65705;51.032;13.790;2023-05-29T03:16:06;100676.63;;;11.31;69.61
76762;BME280;65705;51.032;13.790;2023-05-29T03:18:34;100681.41;;;11.35;68.99
76762;BME280;65705;51.032;13.790;2023-05-29T03:21:01;100685.56;;;11.38;68.76
76762;BME280;65705;51.032;13.790;2023-05-29T03:23:28;100685.91;;;11.25;69.39
76762;BME280;65705;51.032;13.790;2023-05-29T03:25:54;100684.03;;;11.35;69.21
76762;BME280;65705;51.032;13.790;2023-05-29T03:28:20;100678.88;;;11.43;68.82
76762;BME280;65705;51.032;13.790;2023-05-29T03:30:47;100681.88;;;11.48;68.40
76762;BME280;65705;51.032;13.790;2023-05-29T03:33:16;100686.38;;;11.56;68.51
76762;BME280;65705;51.032;13.790;2023-05-29T03:36:20;100687.50;;;11.71;68.24
76762;BME280;65705;51.032;13.790;2023-05-29T03:38:46;100675.75;;;11.83;67.52
76762;BME280;65705;51.032;13.790;2023-05-29T03:41:12;100680.50;;;11.80;67.57
76762;BME280;65705;51.032;13.790;2023-05-29T03:43:38;100679.16;;;11.93;67.45
76762;BME280;65705;51.032;13.790;2023-05-29T03:46:04;100682.50;;;12.03;66.91
76762;BME280;65705;51.032;13.790;2023-05-29T03:48:32;100681.38;;;12.06;66.73
76762;BME280;65705;51.032;13.790;2023-05-29T03:50:58;100684.03;;;12.14;66.54
76762;BME280;65705;51.032;13.790;2023-05-29T03:53:31;100694.63;;;12.22;66.32
76762;BME280;65705;51.032;13.790;2023-05-29T03:55:57;100692.00;;;12.22;66.04
76762;BME280;65705;51.032;13.790;2023-05-29T03:58:23;100692.31;;;12.19;66.06
76762;BME280;65705;51.032;13.790;2023-05-29T04:00:49;100689.72;;;12.27;66.04
76762;BME280;65705;51.032;13.790;2023-05-29T04:03:17;100703.56;;;12.29;65.68
76762;BME280;65705;51.032;13.790;2023-05-29T04:05:45;100701.53;;;12.23;66.10
76762;BME280;65705;51.032;13.790;2023-05-29T04:08:11;100707.78;;;12.22;66.06
76762;BME280;65705;51.032;13.790;2023-05-29T04:10:39;100707.81;;;12.30;66.06
76762;BME280;65705;51.032;13.790;2023-05-29T04:13:05;100708.25;;;12.43;65.46
76762;BME280;65705;51.032;13.790;2023-05-29T04:15:32;100708.94;;;12.53;65.07
76762;BME280;65705;51.032;13.790;2023-05-29T04:17:59;100707.66;;;12.57;64.88
76762;BME280;65705;51.032;13.790;2023-05-29T04:20:25;100713.34;;;12.70;64.59
76762;BME280;65705;51.032;13.790;2023-05-29T04:22:51;100716.97;;;12.77;64.08
76762;BME280;65705;51.032;13.790;2023-05-29T04:25:17;100715.84;;;12.80;64.37
76762;BME280;65705;51.032;13.790;2023-05-29T04:27:44;100712.38;;;12.79;64.07
76762;BME280;65705;51.032;13.790;2023-05-29T04:30:15;100721.81;;;12.90;63.75
76762;BME280;65705;51.032;13.790;2023-05-29T04:32:44;100727.44;;;12.95;63.86
76762;BME280;65705;51.032;13.790;2023-05-29T04:35:12;100725.22;;;13.08;63.64
76762;BME280;65705;51.032;13.790;2023-05-29T04:37:45;100725.88;;;13.18;63.15
76762;BME280;65705;51.032;13.790;2023-05-29T04:40:11;100728.72;;;13.32;62.76
76762;BME280;65705;51.032;13.790;2023-05-29T04:42:39;100731.91;;;13.44;61.10
76762;BME280;65705;51.032;13.790;2023-05-29T04:45:10;100733.06;;;13.49;60.12
76762;BME280;65705;51.032;13.790;2023-05-29T04:47:37;100740.81;;;13.59;59.51
76762;BME280;65705;51.032;13.790;2023-05-29T04:50:11;100736.38;;;13.59;59.29
76762;BME280;65705;51.032;13.790;2023-05-29T04:52:42;100737.38;;;13.58;59.75
76762;BME280;65705;51.032;13.790;2023-05-29T04:55:10;100730.13;;;13.60;59.26
76762;BME280;65705;51.032;13.790;2023-05-29T04:57:37;100731.75;;;13.61;59.13
76762;BME280;65705;51.032;13.790;2023-05-29T05:00:06;100734.06;;;13.64;59.20
76762;BME280;65705;51.032;13.790;2023-05-29T05:02:43;100730.63;;;13.64;59.24
76762;BME280;65705;51.032;13.790;2023-05-29T05:05:10;100730.44;;;13.73;59.78
76762;BME280;65705;51.032;13.790;2023-05-29T05:07:37;100728.13;;;13.78;59.57
76762;BME280;65705;51.032;13.790;2023-05-29T05:10:03;100724.34;;;13.81;59.79
76762;BME280;65705;51.032;13.790;2023-05-29T05:12:31;100735.06;;;13.88;59.87
76762;BME280;65705;51.032;13.790;2023-05-29T05:14:57;100727.50;;;13.93;59.62
76762;BME280;65705;51.032;13.790;2023-05-29T05:17:23;100728.00;;;13.96;59.59
76762;BME280;65705;51.032;13.790;2023-05-29T05:19:50;100721.88;;;13.88;59.66
76762;BME280;65705;51.032;13.790;2023-05-29T05:22:17;100732.44;;;13.88;59.74
76762;BME280;65705;51.032;13.790;2023-05-29T05:24:43;100735.44;;;13.93;59.74
76762;BME280;65705;51.032;13.790;2023-05-29T05:27:09;100737.22;;;13.92;59.45
76762;BME280;65705;51.032;13.790;2023-05-29T05:29:34;100731.94;;;13.92;59.07
76762;BME280;65705;51.032;13.790;2023-05-29T05:32:00;100733.91;;;13.98;59.25
76762;BME280;65705;51.032;13.790;2023-05-29T05:34:26;100727.50;;;14.09;59.23
76762;BME280;65705;51.032;13.790;2023-05-29T05:36:52;100735.22;;;14.18;59.23
76762;BME280;65705;51.032;13.790;2023-05-29T05:39:19;100744.13;;;14.25;58.99
76762;BME280;65705;51.032;13.790;2023-05-29T05:41:46;100740.88;;;14.31;58.60
76762;BME280;65705;51.032;13.790;2023-05-29T05:44:16;100741.00;;;14.38;58.22
76762;BME280;65705;51.032;13.790;2023-05-29T05:46:49;100736.88;;;14.43;57.47
76762;BME280;65705;51.032;13.790;2023-05-29T05:49:15;100743.16;;;14.42;57.65
76762;BME280;65705;51.032;13.790;2023-05-29T05:51:41;100741.81;;;14.54;57.64
76762;BME280;65705;51.032;13.790;2023-05-29T05:54:08;100741.31;;;14.59;57.19
76762;BME280;65705;51.032;13.790;2023-05-29T05:56:35;100742.94;;;14.68;57.14
76762;BME280;65705;51.032;13.790;2023-05-29T05:59:00;100739.09;;;14.78;57.23
76762;BME280;65705;51.032;13.790;2023-05-29T06:01:26;100742.06;;;14.84;57.26
76762;BME280;65705;51.032;13.790;2023-05-29T06:03:52;100738.88;;;14.88;57.46
76762;BME280;65705;51.032;13.790;2023-05-29T06:06:19;100738.69;;;14.98;56.61
76762;BME280;65705;51.032;13.790;2023-05-29T06:08:46;100740.97;;;15.09;56.52
76762;BME280;65705;51.032;13.790;2023-05-29T06:11:12;100747.03;;;15.17;55.94
76762;BME280;65705;51.032;13.790;2023-05-29T06:13:42;100754.78;;;15.19;55.57
76762;BME280;65705;51.032;13.790;2023-05-29T06:16:13;100752.63;;;15.22;55.54
76762;BME280;65705;51.032;13.790;2023-05-29T06:18:39;100757.06;;;15.30;55.92
76762;BME280;65705;51.032;13.790;2023-05-29T06:21:07;100751.72;;;15.38;55.51
76762;BME280;65705;51.032;13.790;2023-05-29T06:23:33;100752.91;;;15.43;55.90
76762;BME280;65705;51.032;13.790;2023-05-29T06:26:00;100757.00;;;15.46;55.27
76762;BME280;65705;51.032;13.790;2023-05-29T06:28:26;100757.28;;;15.51;55.59
76762;BME280;65705;51.032;13.790;2023-05-29T06:30:53;100753.13;;;15.56;55.25
76762;BME280;65705;51.032;13.790;2023-05-29T06:33:19;100753.41;;;15.61;55.25
76762;BME280;65705;51.032;13.790;2023-05-29T06:35:47;100758.50;;;15.71;55.33
76762;BME280;65705;51.032;13.790;2023-05-29T06:38:13;100759.25;;;15.79;54.65
76762;BME280;65705;51.032;13.790;2023-05-29T06:40:52;100760.03;;;15.88;54.59
76762;BME280;65705;51.032;13.790;2023-05-29T06:43:17;100765.34;;;15.88;52.92
76762;BME280;65705;51.032;13.790;2023-05-29T06:45:47;100759.44;;;15.78;53.75
76762;BME280;65705;51.032;13.790;2023-05-29T06:48:13;100763.88;;;15.77;53.28
76762;BME280;65705;51.032;13.790;2023-05-29T06:50:39;100768.38;;;15.77;53.67
76762;BME280;65705;51.032;13.790;2023-05-29T06:53:25;100768.97;;;15.87;53.38
76762;BME280;65705;51.032;13.790;2023-05-29T06:55:54;100778.69;;;15.95;53.33
76762;BME280;65705;51.032;13.790;2023-05-29T06:58:20;100770.66;;;16.03;53.32
76762;BME280;65705;51.032;13.790;2023-05-29T07:00:46;100773.06;;;16.12;53.35
76762;BME280;65705;51.032;13.790;2023-05-29T07:03:46;100773.00;;;16.20;52.74
76762;BME280;65705;51.032;13.790;2023-05-29T07:06:13;100772.94;;;16.28;51.83
76762;BME280;65705;51.032;13.790;2023-05-29T07:08:39;100776.69;;;16.34;51.83
76762;BME280;65705;51.032;13.790;2023-05-29T07:11:06;100776.31;;;16.37;52.26
76762;BME280;65705;51.032;13.790;2023-05-29T07:13:32;100774.44;;;16.45;52.36
76762;BME280;65705;51.032;13.790;2023-05-29T07:15:58;100768.88;;;16.55;51.94
76762;BME280;65705;51.032;13.790;2023-05-29T07:18:32;100779.44;;;16.63;52.02
76762;BME280;65705;51.032;13.790;2023-05-29T07:21:00;100772.38;;;16.70;51.20
76762;BME280;65705;51.032;13.790;2023-05-29T07:23:27;100770.09;;;16.81;51.56
76762;BME280;65705;51.032;13.790;2023-05-29T07:25:53;100774.31;;;16.91;51.80
76762;BME280;65705;51.032;13.790;2023-05-29T07:28:19;100774.28;;;17.05;51.90
76762;BME280;65705;51.032;13.790;2023-05-29T07:30:45;100773.19;;;17.14;50.69
76762;BME280;65705;51.032;13.790;2023-05-29T07:33:11;100776.09;;;17.19;50.25
76762;BME280;65705;51.032;13.790;2023-05-29T07:35:37;100776.94;;;17.20;49.90
76762;BME280;65705;51.032;13.790;2023-05-29T07:38:04;100771.81;;;17.18;50.70
76762;BME280;65705;51.032;13.790;2023-05-29T07:40:29;100776.94;;;17.20;50.54
76762;BME280;65705;51.032;13.790;2023-05-29T07:43:21;100778.47;;;17.29;50.21
76762;BME280;65705;51.032;13.790;2023-05-29T07:45:53;100774.91;;;17.36;49.19
76762;BME280;65705;51.032;13.790;2023-05-29T07:48:19;100779.63;;;17.41;48.45
76762;BME280;65705;51.032;13.790;2023-05-29T07:50:46;100771.97;;;17.46;49.14
76762;BME280;65705;51.032;13.790;2023-05-29T07:53:12;100779.00;;;17.53;48.65
76762;BME280;65705;51.032;13.790;2023-05-29T07:55:39;100774.78;;;17.59;48.92
76762;BME280;65705;51.032;13.790;2023-05-29T07:58:04;100787.13;;;17.66;48.81
76762;BME280;65705;51.032;13.790;2023-05-29T08:00:30;100781.13;;;17.79;48.67
76762;BME280;65705;51.032;13.790;2023-05-29T08:02:56;100782.16;;;17.99;47.02
76762;BME280;65705;51.032;13.790;2023-05-29T08:05:41;100783.47;;;18.10;47.34
76762;BME280;65705;51.032;13.790;2023-05-29T08:08:10;100782.72;;;18.16;46.72
76762;BME280;65705;51.032;13.790;2023-05-29T08:10:39;100783.78;;;18.21;47.14
76762;BME280;65705;51.032;13.790;2023-05-29T08:13:06;100784.03;;;18.26;47.01
76762;BME280;65705;51.032;13.790;2023-05-29T08:15:33;100782.56;;;18.45;46.43
76762;BME280;65705;51.032;13.790;2023-05-29T08:17:59;100784.06;;;18.54;45.71
76762;BME280;65705;51.032;13.790;2023-05-29T08:20:25;100778.81;;;18.60;45.20
76762;BME280;65705;51.032;13.790;2023-05-29T08:22:51;100786.19;;;18.65;45.48
76762;BME280;65705;51.032;13.790;2023-05-29T08:25:17;100780.91;;;18.71;45.96
76762;BME280;65705;51.032;13.790;2023-05-29T08:27:42;100778.50;;;18.76;43.70
76762;BME280;65705;51.032;13.790;2023-05-29T08:30:08;100778.81;;;18.95;44.54
76762;BME280;65705;51.032;13.790;2023-05-29T08:32:34;100774.53;;;19.00;44.54
76762;BME280;65705;51.032;13.790;2023-05-29T08:35:00;100777.81;;;19.02;44.91
76762;BME280;65705;51.032;13.790;2023-05-29T08:37:26;100771.28;;;19.05;44.04
76762;BME280;65705;51.032;13.790;2023-05-29T08:39:53;100767.00;;;19.10;43.49
76762;BME280;65705;51.032;13.790;2023-05-29T08:42:27;100762.53;;;19.17;41.96
76762;BME280;65705;51.032;13.790;2023-05-29T08:44:56;100760.50;;;19.26;41.92
76762;BME280;65705;51.032;13.790;2023-05-29T08:47:26;100752.94;;;19.29;41.95
76762;BME280;65705;51.032;13.790;2023-05-29T08:49:53;100760.44;;;19.53;41.59
76762;BME280;65705;51.032;13.790;2023-05-29T08:52:21;100761.91;;;19.62;40.92
76762;BME280;65705;51.032;13.790;2023-05-29T08:54:47;100758.22;;;19.63;39.88
76762;BME280;65705;51.032;13.790;2023-05-29T08:57:13;100752.91;;;19.70;40.22
76762;BME280;65705;51.032;13.790;2023-05-29T08:59:42;100755.38;;;19.78;40.88
76762;BME280;65705;51.032;13.790;2023-05-29T09:02:09;100752.28;;;19.81;39.59
76762;BME280;65705;51.032;13.790;2023-05-29T09:04:35;100755.59;;;19.96;37.68
76762;BME280;65705;51.032;13.790;2023-05-29T09:07:00;100757.25;;;20.04;38.00
76762;BME280;65705;51.032;13.790;2023-05-29T09:09:29;100762.81;;;20.02;37.49
76762;BME280;65705;51.032;13.790;2023-05-29T09:11:57;100755.59;;;20.03;38.11
76762;BME280;65705;51.032;13.790;2023-05-29T09:14:34;100762.16;;;20.13;38.61
76762;BME280;65705;51.032;13.790;2023-05-29T09:17:01;100761.38;;;20.13;39.22
76762;BME280;65705;51.032;13.790;2023-05-29T09:19:27;100764.44;;;20.29;37.68
76762;BME280;65705;51.032;13.790;2023-05-29T09:22:00;100772.28;;;20.31;35.88
76762;BME280;65705;51.032;13.790;2023-05-29T09:24:27;100760.34;;;20.33;35.16
76762;BME280;65705;51.032;13.790;2023-05-29T09:26:53;100773.88;;;20.38;35.39
76762;BME280;65705;51.032;13.790;2023-05-29T09:29:21;100763.63;;;20.42;35.57
76762;BME280;65705;51.032;13.790;2023-05-29T09:31:47;100767.34;;;20.41;35.56
76762;BME280;65705;51.032;13.790;2023-05-29T09:34:13;100768.16;;;20.41;35.26
76762;BME280;65705;51.032;13.790;2023-05-29T09:36:39;100763.00;;;20.53;34.36
76762;BME280;65705;51.032;13.790;2023-05-29T09:39:04;100760.94;;;20.68;34.59
76762;BME280;65705;51.032;13.790;2023-05-29T09:41:44;100763.81;;;20.66;34.37
76762;BME280;65705;51.032;13.790;2023-05-29T09:44:16;100770.56;;;20.75;34.67
76762;BME280;65705;51.032;13.790;2023-05-29T09:46:42;100761.13;;;20.73;34.13
76762;BME280;65705;51.032;13.790;2023-05-29T09:49:11;100776.28;;;20.85;33.31
76762;BME280;65705;51.032;13.790;2023-05-29T09:51:36;100764.78;;;20.85;33.46
76762;BME280;65705;51.032;13.790;2023-05-29T09:54:16;100758.59;;;20.97;33.97
76762;BME280;65705;51.032;13.790;2023-05-29T09:56:42;100746.91;;;20.98;33.67
76762;BME280;65705;51.032;13.790;2023-05-29T09:59:13;100751.81;;;21.08;33.79
76762;BME280;65705;51.032;13.790;2023-05-29T10:01:43;100755.06;;;21.17;33.92
76762;BME280;65705;51.032;13.790;2023-05-29T10:04:12;100762.22;;;21.29;32.67
76762;BME280;65705;51.032;13.790;2023-05-29T10:06:45;100747.59;;;21.32;32.42
76762;BME280;65705;51.032;13.790;2023-05-29T10:09:14;100750.66;;;21.35;32.71
76762;BME280;65705;51.032;13.790;2023-05-29T10:11:43;100757.00;;;21.41;32.47
76762;BME280;65705;51.032;13.790;2023-05-29T10:14:13;100758.19;;;21.51;33.14
76762;BME280;65705;51.032;13.790;2023-05-29T10:16:42;100752.16;;;21.62;32.33
76762;BME280;65705;51.032;13.790;2023-05-29T10:19:14;100765.22;;;21.77;31.48
76762;BME280;65705;51.032;13.790;2023-05-29T10:21:42;100765.22;;;21.77;31.42
76762;BME280;65705;51.032;13.790;2023-05-29T10:24:10;100762.97;;;21.80;32.01
76762;BME280;65705;51.032;13.790;2023-05-29T10:26:39;100759.06;;;21.83;31.88
76762;BME280;65705;51.032;13.790;2023-05-29T10:29:28;100767.25;;;21.88;31.29
76762;BME280;65705;51.032;13.790;2023-05-29T10:32:00;100758.56;;;21.92;31.71
76762;BME280;65705;51.032;13.790;2023-05-29T10:34:48;100756.19;;;21.84;32.31
76762;BME280;65705;51.032;13.790;2023-05-29T10:39:53;100761.38;;;22.04;31.01
76762;BME280;65705;51.032;13.790;2023-05-29T10:45:04;100741.41;;;22.31;31.82
76762;BME280;65705;51.032;13.790;2023-05-29T10:47:30;100743.13;;;22.44;31.77
76762;BME280;65705;51.032;13.790;2023-05-29T10:50:03;100741.78;;;22.35;30.95
76762;BME280;65705;51.032;13.790;2023-05-29T10:52:33;100744.31;;;22.30;30.71
76762;BME280;65705;51.032;13.790;2023-05-29T10:54:58;100748.16;;;22.34;31.14
76762;BME280;65705;51.032;13.790;2023-05-29T10:57:25;100746.69;;;22.38;30.81
76762;BME280;65705;51.032;13.790;2023-05-29T10:59:59;100741.72;;;22.41;30.93
76762;BME280;65705;51.032;13.790;2023-05-29T11:02:26;100735.75;;;22.39;31.17
76762;BME280;65705;51.032;13.790;2023-05-29T11:05:25;100730.88;;;22.54;31.64
76762;BME280;65705;51.032;13.790;2023-05-29T11:07:57;100741.00;;;22.52;31.46
76762;BME280;65705;51.032;13.790;2023-05-29T11:13:24;100734.09;;;22.20;31.62
76762;BME280;65705;51.032;13.790;2023-05-29T11:18:44;100732.41;;;22.26;31.55
76762;BME280;65705;51.032;13.790;2023-05-29T11:24:22;100725.94;;;22.58;31.36
76762;BME280;65705;51.032;13.790;2023-05-29T11:26:54;100725.13;;;22.57;30.71
76762;BME280;65705;51.032;13.790;2023-05-29T11:29:26;100721.84;;;22.73;31.20
76762;BME280;65705;51.032;13.790;2023-05-29T11:31:58;100728.25;;;22.72;31.39
76762;BME280;65705;51.032;13.790;2023-05-29T11:34:28;100718.50;;;22.60;30.66
76762;BME280;65705;51.032;13.790;2023-05-29T11:37:01;100727.06;;;22.68;31.82
76762;BME280;65705;51.032;13.790;2023-05-29T11:39:28;100720.38;;;22.77;30.93
76762;BME280;65705;51.032;13.790;2023-05-29T11:41:54;100713.81;;;22.91;29.99
76762;BME280;65705;51.032;13.790;2023-05-29T11:44:23;100712.56;;;23.12;30.16
76762;BME280;65705;51.032;13.790;2023-05-29T11:47:03;100715.38;;;23.35;29.24
76762;BME280;65705;51.032;13.790;2023-05-29T11:49:29;100719.94;;;23.46;30.19
76762;BME280;65705;51.032;13.790;2023-05-29T11:52:08;100726.81;;;23.54;30.68
76762;BME280;65705;51.032;13.790;2023-05-29T11:54:34;100721.44;;;23.42;30.20
76762;BME280;65705;51.032;13.790;2023-05-29T11:57:00;100725.25;;;23.35;30.19
76762;BME280;65705;51.032;13.790;2023-05-29T11:59:31;100714.31;;;23.36;30.33
76762;BME280;65705;51.032;13.790;2023-05-29T12:01:56;100722.56;;;23.35;30.32
76762;BME280;65705;51.032;13.790;2023-05-29T12:04:22;100724.44;;;23.34;30.22
76762;BME280;65705;51.032;13.790;2023-05-29T12:06:48;100713.34;;;23.31;29.79
76762;BME280;65705;51.032;13.790;2023-05-29T12:09:32;100713.72;;;23.34;29.91
76762;BME280;65705;51.032;13.790;2023-05-29T12:12:02;100706.72;;;23.33;29.28
76762;BME280;65705;51.032;13.790;2023-05-29T12:14:28;100707.16;;;23.48;29.74
76762;BME280;65705;51.032;13.790;2023-05-29T12:16:53;100699.09;;;23.48;30.04
76762;BME280;65705;51.032;13.790;2023-05-29T12:19:19;100697.03;;;23.62;30.24
76762;BME280;65705;51.032;13.790;2023-05-29T12:21:45;100706.09;;;23.61;29.15
76762;BME280;65705;51.032;13.790;2023-05-29T12:24:11;100708.91;;;23.54;29.87
76762;BME280;65705;51.032;13.790;2023-05-29T12:26:37;100711.91;;;23.46;29.85
76762;BME280;65705;51.032;13.790;2023-05-29T12:29:03;100705.59;;;23.41;30.00
76762;BME280;65705;51.032;13.790;2023-05-29T12:31:31;100704.66;;;23.35;29.99
76762;BME280;65705;51.032;13.790;2023-05-29T12:34:01;100701.09;;;23.23;30.28
76762;BME280;65705;51.032;13.790;2023-05-29T12:36:27;100702.56;;;23.19;30.73
76762;BME280;65705;51.032;13.790;2023-05-29T12:38:53;100694.41;;;23.14;30.65
76762;BME280;65705;51.032;13.790;2023-05-29T12:41:29;100692.22;;;23.23;31.15
76762;BME280;65705;51.032;13.790;2023-05-29T12:43:56;100683.44;;;23.34;30.15
76762;BME280;65705;51.032;13.790;2023-05-29T12:46:26;100675.88;;;23.42;30.58
76762;BME280;65705;51.032;13.790;2023-05-29T12:48:53;100688.69;;;23.40;30.18
76762;BME280;65705;51.032;13.790;2023-05-29T12:51:27;100684.06;;;23.47;30.46
76762;BME280;65705;51.032;13.790;2023-05-29T12:53:53;100689.09;;;23.55;30.13
76762;BME280;65705;51.032;13.790;2023-05-29T12:56:24;100692.75;;;23.72;29.45
76762;BME280;65705;51.032;13.790;2023-05-29T12:58:52;100682.94;;;23.66;28.67
76762;BME280;65705;51.032;13.790;2023-05-29T13:01:18;100676.91;;;23.71;29.36
76762;BME280;65705;51.032;13.790;2023-05-29T13:03:44;100682.41;;;23.87;29.43